Terminal Aerodrome Forecast
Issued by NWS Wilmington, OH

Current Version | Previous Version | Graphics & Text | Print | Product List | Glossary On
Versions: 1 2 3 4 5 6 7 8 9 10 11 12 13 14 15 16 17 18 19 20 21 22 23
000
FTUS41 KILN 221026 AAB
TAFCMH
TAF AMD
KCMH 221026Z 2210/2306 18003KT P6SM VCTS BKN040CB OVC100
      TEMPO 2210/2211 25015G25KT 5SM -TSRA
     FM221100 18005KT 3SM -SHRA VCTS BKN015CB OVC070
      TEMPO 2211/2212 25020G40KT 1SM TSRA OVC025CB
     FM221700 23010G18KT P6SM BKN040
     FM222200 22012KT 5SM -SHRA VCTS BKN045CB
     FM222300 23010KT 2SM TSRA OVC040CB
     FM230500 23009KT P6SM -SHRA VCTS BKN040CB=

USA.gov is the U.S. government's official web portal to all federal, state and local government web resources and services.